Tucurui, Brazil
Current Conditions -  °F | °C
As of 12:00 PM on Saturday 22 Nov 2014 (Local Time) from SBMA Reporting Station
Scattered Clouds Scattered Clouds  
Wind Chill: 88°   Ceiling: Unl
Heat Index: 100°   Visibility: 6mi
Dew Point: 77°   Wind: 6mph
Humidity: 70%   Direction: 80°E
Pressure: 29.85"   Gusts: NA
Location:  3.77°S, 49.67°W
Report Text: SBMA 221500Z 08005KT 9999 SCT025 31/25 Q1011
Loading
Personal Weather Stations






























Interactive Weather Map New forecast layout! Learn more

10-Day Weather Forecast

Advertisements
Track Severe Weather on mobile